Time;durP1;ratioP1;P1;durP2;ratioP2;P2;SDS_P1;SDS_P2;PMS_P1;PMS_P2;Temp;Humidity;BMP_temperature;BMP_pressure;BME280_temperature;BME280_humidity;BME280_pressure;Samples;Min_cycle;Max_cycle;Signal;HPM_P1;HPM_P2
2022/08/23 00:02:02;;;;;;;;;;;;;;;22.57;47.89;100328.13;4959666;28;7062;-76
2022/08/23 00:04:38;;;;;;;;;;;;;;;22.52;48.23;100319.47;4960860;28;6804;-76
2022/08/23 00:07:08;;;;;;;;;;;;;;;22.50;48.52;100315.13;4973869;28;7294;-76
2022/08/23 00:09:34;;;;;;;;;;;;;;;22.45;48.32;100310.75;4977696;28;7251;-76
2022/08/23 00:12:13;;;;;;;;;;;;;;;22.42;48.00;100312.50;4973976;28;7152;-76
2022/08/23 00:14:46;;;;;;;;;;;;;;;22.37;48.71;100320.34;4976341;28;6804;-76
2022/08/23 00:17:11;;;;;;;;;;;;;;;22.32;48.72;100307.28;4949685;28;7134;-76
2022/08/23 00:19:38;;;;;;;;;;;;;;;22.26;49.00;100306.41;4961628;28;7161;-76
2022/08/23 00:22:05;;;;;;;;;;;;;;;22.23;49.58;100307.31;4961649;28;7260;-76
2022/08/23 00:24:31;;;;;;;;;;;;;;;22.23;49.37;100307.31;4977639;28;7265;-76
2022/08/23 00:27:06;;;;;;;;;;;;;;;22.23;49.63;100307.31;4979905;28;8058;-76
2022/08/23 00:29:49;;;;;;;;;;;;;;;22.23;49.69;100306.44;4962751;28;6808;-76
2022/08/23 00:32:23;;;;;;;;;;;;;;;22.23;49.24;100311.66;4964059;28;6989;-76
2022/08/23 00:34:50;;;;;;;;;;;;;;;22.20;49.58;100308.19;4963695;28;7046;-77
2022/08/23 00:37:16;;;;;;;;;;;;;;;22.20;49.24;100307.28;4973737;28;6792;-76
2022/08/23 00:39:43;;;;;;;;;;;;;;;22.18;49.14;100309.03;4973029;28;7239;-76
2022/08/23 00:48:23;;;;;;;;;;;;;;;22.15;49.68;100306.44;4960702;28;6788;-76
2022/08/23 00:51:15;;;;;;;;;;;;;;;22.13;49.74;100309.06;4975545;28;7217;-76
2022/08/23 00:53:46;;;;;;;;;;;;;;;22.13;49.80;100300.38;4975979;28;7268;-76
2022/08/23 00:56:18;;;;;;;;;;;;;;;22.13;49.94;100301.22;4959923;28;7339;-76
2022/08/23 00:58:45;;;;;;;;;;;;;;;22.16;49.58;100300.34;4962707;28;6943;-76
2022/08/23 01:01:12;;;;;;;;;;;;;;;22.17;49.52;100302.97;4974214;28;7044;-76
2022/08/23 01:03:42;;;;;;;;;;;;;;;22.15;49.62;100307.31;4988987;28;7359;-76
2022/08/23 01:06:15;;;;;;;;;;;;;;;22.15;49.42;100309.06;4957840;28;6804;-76
2022/08/23 01:08:48;;;;;;;;;;;;;;;22.11;49.87;100302.97;4965325;28;7028;-76
2022/08/23 01:11:40;;;;;;;;;;;;;;;22.06;49.85;100299.47;4961399;28;7171;-76
2022/08/23 01:14:39;;;;;;;;;;;;;;;22.02;49.82;100316.91;4993229;28;8411;-76
2022/08/23 01:17:22;;;;;;;;;;;;;;;21.98;49.75;100311.69;4993938;28;8065;-76
2022/08/23 01:19:59;;;;;;;;;;;;;;;21.94;49.88;100309.94;4990630;28;7054;-76
2022/08/23 01:23:12;;;;;;;;;;;;;;;21.90;49.90;100311.69;4961198;28;6844;-76
2022/08/23 01:25:39;;;;;;;;;;;;;;;21.83;50.00;100317.78;4975673;28;6883;-76
2022/08/23 01:28:05;;;;;;;;;;;;;;;21.80;50.11;100317.75;4989828;28;10618;-76
2022/08/23 01:30:34;;;;;;;;;;;;;;;21.76;50.30;100319.50;4959936;28;8217;-76
2022/08/23 01:33:04;;;;;;;;;;;;;;;21.72;50.18;100321.22;4990330;28;7350;-76
2022/08/23 01:35:57;;;;;;;;;;;;;;;21.69;50.18;100321.25;4958102;28;6804;-76
2022/08/23 01:38:25;;;;;;;;;;;;;;;21.67;50.46;100332.50;4976751;28;7153;-76
2022/08/23 01:40:51;;;;;;;;;;;;;;;21.62;50.39;100330.78;4958450;28;6815;-76
2022/08/23 01:43:20;;;;;;;;;;;;;;;21.59;50.48;100329.91;4955110;28;6804;-76
2022/08/23 01:45:49;;;;;;;;;;;;;;;21.54;50.43;100322.06;4988270;28;6808;-76
2022/08/23 01:48:17;;;;;;;;;;;;;;;21.51;50.71;100322.06;4989628;28;7257;-76
2022/08/23 01:50:44;;;;;;;;;;;;;;;21.48;51.01;100317.72;4972633;28;7055;-76
2022/08/23 01:53:10;;;;;;;;;;;;;;;21.47;50.82;100321.19;4961653;28;7017;-76
2022/08/23 01:55:37;;;;;;;;;;;;;;;21.49;51.10;100323.81;4963940;28;6978;-76
2022/08/23 01:58:05;;;;;;;;;;;;;;;21.47;51.03;100315.97;4961842;28;6849;-76
2022/08/23 02:00:40;;;;;;;;;;;;;;;21.50;50.80;100323.78;4954615;28;6796;-76
2022/08/23 02:03:07;;;;;;;;;;;;;;;21.51;50.79;100322.06;4957159;28;7411;-76
2022/08/23 02:05:36;;;;;;;;;;;;;;;21.55;51.11;100328.16;4973312;28;7130;-77
2022/08/23 02:10:51;;;;;;;;;;;;;;;21.59;50.87;100329.91;4983373;28;7689;-76
2022/08/23 02:13:17;;;;;;;;;;;;;;;21.59;50.88;100319.47;4960468;28;7016;-76
2022/08/23 02:15:45;;;;;;;;;;;;;;;21.59;50.86;100324.69;4974078;28;6830;-76
2022/08/23 02:18:12;;;;;;;;;;;;;;;21.59;50.52;100319.47;4962760;28;6977;-76
2022/08/23 02:20:43;;;;;;;;;;;;;;;21.58;50.79;100321.19;4957670;28;7779;-76
2022/08/23 02:23:09;;;;;;;;;;;;;;;21.56;50.83;100322.06;4976577;28;6953;-75
2022/08/23 02:25:35;;;;;;;;;;;;;;;21.54;50.66;100329.03;4961662;28;7235;-75
2022/08/23 02:28:04;;;;;;;;;;;;;;;21.53;51.09;100322.06;4961652;28;6839;-75
2022/08/23 02:30:30;;;;;;;;;;;;;;;21.50;50.72;100329.00;4971626;28;6966;-75
2022/08/23 02:32:56;;;;;;;;;;;;;;;21.48;51.03;100333.34;4974898;28;6776;-75
2022/08/23 02:35:23;;;;;;;;;;;;;;;21.44;50.89;100323.81;4953476;28;6772;-75
2022/08/23 02:37:48;;;;;;;;;;;;;;;21.44;51.24;100328.13;4959139;28;6804;-75
2022/08/23 02:40:14;;;;;;;;;;;;;;;21.41;50.90;100326.38;4991351;28;7030;-75
2022/08/23 02:42:40;;;;;;;;;;;;;;;21.38;50.85;100323.78;4994811;28;7218;-75
2022/08/23 02:45:07;;;;;;;;;;;;;;;21.35;50.99;100323.78;4959391;28;6974;-75
2022/08/23 02:47:35;;;;;;;;;;;;;;;21.31;51.15;100335.06;4957391;28;7236;-75
2022/08/23 02:50:07;;;;;;;;;;;;;;;21.26;51.12;100331.56;4973992;28;6872;-74
2022/08/23 02:52:33;;;;;;;;;;;;;;;21.19;51.28;100330.66;4958206;28;6936;-75
2022/08/23 02:54:59;;;;;;;;;;;;;;;21.14;51.11;100335.00;4988759;28;6984;-75
2022/08/23 02:57:25;;;;;;;;;;;;;;;21.08;51.44;100341.06;4945720;28;7251;-75
2022/08/23 02:59:52;;;;;;;;;;;;;;;21.04;51.34;100331.47;4961665;28;6797;-75
2022/08/23 03:02:18;;;;;;;;;;;;;;;21.00;51.39;100345.38;4957068;28;7697;-75
2022/08/23 03:04:44;;;;;;;;;;;;;;;20.97;51.81;100346.22;4944307;28;8078;-75
2022/08/23 03:07:11;;;;;;;;;;;;;;;20.95;51.64;100341.00;4959780;28;7013;-75
2022/08/23 03:09:36;;;;;;;;;;;;;;;20.92;51.60;100338.38;4959946;28;6808;-75
2022/08/23 03:12:03;;;;;;;;;;;;;;;20.91;51.54;100341.00;4972231;28;7148;-75
2022/08/23 03:14:28;;;;;;;;;;;;;;;20.89;51.38;100342.72;4985282;28;6812;-75
2022/08/23 03:16:54;;;;;;;;;;;;;;;20.86;51.69;100341.00;4974096;28;7401;-75
2022/08/23 03:19:20;;;;;;;;;;;;;;;20.83;51.80;100330.53;4961618;28;6788;-75
2022/08/23 03:21:46;;;;;;;;;;;;;;;20.82;51.87;100334.00;4961969;28;6869;-75
2022/08/23 03:24:12;;;;;;;;;;;;;;;20.81;51.86;100342.66;4958582;28;6890;-75
2022/08/23 03:26:42;;;;;;;;;;;;;;;20.79;51.85;100347.84;4969365;28;7853;-75
2022/08/23 03:29:08;;;;;;;;;;;;;;;20.78;51.80;100343.50;4949972;28;6860;-75
2022/08/23 03:31:34;;;;;;;;;;;;;;;20.76;51.68;100341.75;4955837;28;6887;-75
2022/08/23 03:34:01;;;;;;;;;;;;;;;20.73;51.62;100352.16;4970308;28;7920;-75
2022/08/23 03:36:26;;;;;;;;;;;;;;;20.70;52.05;100352.16;4972401;28;7134;-75
2022/08/23 03:38:52;;;;;;;;;;;;;;;20.65;51.91;100355.59;4959798;28;6772;-75
2022/08/23 03:41:17;;;;;;;;;;;;;;;20.62;52.26;100357.31;4972235;28;6956;-75
2022/08/23 03:43:43;;;;;;;;;;;;;;;20.59;51.74;100360.78;4956144;28;6787;-76
2022/08/23 03:46:21;;;;;;;;;;;;;;;20.57;51.93;100361.63;4955272;28;6768;-76
2022/08/23 03:48:52;;;;;;;;;;;;;;;20.54;52.30;100367.66;4960679;28;7074;-75
2022/08/23 03:51:20;;;;;;;;;;;;;;;20.52;52.10;100369.41;4995159;28;6995;-75
2022/08/23 03:53:46;;;;;;;;;;;;;;;20.52;52.45;100365.09;4963094;28;7899;-75
2022/08/23 03:56:29;;;;;;;;;;;;;;;20.52;52.50;100370.28;4996350;28;6803;-75
2022/08/23 03:58:59;;;;;;;;;;;;;;;20.52;52.04;100372.00;4993845;28;7403;-75
2022/08/23 04:01:24;;;;;;;;;;;;;;;20.56;52.38;100380.72;4987599;28;7101;-75
2022/08/23 04:03:50;;;;;;;;;;;;;;;20.58;52.26;100379.88;4988754;28;7256;-76
2022/08/23 04:06:17;;;;;;;;;;;;;;;20.62;52.57;100381.63;4957814;28;7172;-76
2022/08/23 04:08:44;;;;;;;;;;;;;;;20.66;52.62;100375.56;4974264;28;6776;-77
2022/08/23 04:11:13;;;;;;;;;;;;;;;20.70;52.43;100384.25;4959676;28;6957;-76
2022/08/23 04:13:39;;;;;;;;;;;;;;;20.73;52.75;100378.19;4996852;28;6792;-77
2022/08/23 04:16:06;;;;;;;;;;;;;;;20.79;52.89;100386.91;4960759;28;8135;-76
2022/08/23 04:18:32;;;;;;;;;;;;;;;20.86;52.74;100389.59;4976850;28;6788;-76
2022/08/23 04:21:05;;;;;;;;;;;;;;;20.93;52.86;100392.22;4959845;28;7170;-76
2022/08/23 04:23:31;;;;;;;;;;;;;;;21.01;52.57;100394.91;4965565;28;6988;-76
2022/08/23 04:25:56;;;;;;;;;;;;;;;21.08;52.49;100401.00;4964116;28;6964;-76
2022/08/23 04:28:23;;;;;;;;;;;;;;;21.15;52.44;100396.69;4970011;28;6784;-76
2022/08/23 04:30:50;;;;;;;;;;;;;;;21.22;52.27;100398.44;4959794;28;6804;-76
2022/08/23 04:33:17;;;;;;;;;;;;;;;21.30;52.16;100401.97;4959494;28;7208;-76
2022/08/23 04:35:44;;;;;;;;;;;;;;;21.36;52.16;100401.13;4960859;28;7572;-76
2022/08/23 04:38:11;;;;;;;;;;;;;;;21.43;51.62;100399.38;4959992;28;6796;-77
2022/08/23 04:43:21;;;;;;;;;;;;;;;21.55;51.50;100398.56;4978701;28;6808;-76
2022/08/23 04:45:47;;;;;;;;;;;;;;;21.58;51.71;100396.81;4978626;28;6792;-76
2022/08/23 04:48:13;;;;;;;;;;;;;;;21.63;51.45;100409.84;4942382;28;6941;-76
2022/08/23 04:50:40;;;;;;;;;;;;;;;21.66;51.49;100404.66;4992044;28;8645;-76
2022/08/23 04:53:06;;;;;;;;;;;;;;;21.71;51.34;100412.53;4964304;28;7032;-76
2022/08/23 04:55:32;;;;;;;;;;;;;;;21.74;51.36;100413.41;4963176;28;8041;-76
2022/08/23 04:57:57;;;;;;;;;;;;;;;21.78;51.41;100409.09;4964083;28;6826;-76
2022/08/23 05:00:23;;;;;;;;;;;;;;;21.82;51.43;100420.34;4992449;28;6954;-76
2022/08/23 05:02:49;;;;;;;;;;;;;;;21.86;51.68;100422.97;4960167;28;6800;-77
2022/08/23 05:05:15;;;;;;;;;;;;;;;21.89;51.50;100420.41;4946284;28;6994;-76
2022/08/23 05:07:41;;;;;;;;;;;;;;;21.93;51.78;100423.88;4957423;28;6938;-77
2022/08/23 05:10:11;;;;;;;;;;;;;;;21.97;51.86;100427.34;4959580;28;7217;-76
2022/08/23 05:12:37;;;;;;;;;;;;;;;22.00;51.97;100428.22;4962022;28;7221;-76
2022/08/23 05:15:03;;;;;;;;;;;;;;;22.06;51.76;100430.84;4961592;28;6767;-76
2022/08/23 05:17:29;;;;;;;;;;;;;;;22.12;51.95;100429.97;4993576;28;6950;-76
2022/08/23 05:19:54;;;;;;;;;;;;;;;22.22;52.30;100432.59;4964816;28;6763;-76
2022/08/23 05:22:20;;;;;;;;;;;;;;;22.30;52.29;100434.31;4964308;28;7002;-76
2022/08/23 05:24:45;;;;;;;;;;;;;;;22.41;52.11;100436.09;4960236;28;7314;-76
2022/08/23 05:27:11;;;;;;;;;;;;;;;22.52;52.28;100442.19;4977690;28;6994;-76
2022/08/23 05:29:37;;;;;;;;;;;;;;;22.65;52.30;100444.78;4993269;28;6996;-76
2022/08/23 05:32:03;;;;;;;;;;;;;;;22.75;51.63;100449.13;4960929;28;6852;-76
2022/08/23 05:34:29;;;;;;;;;;;;;;;22.87;51.94;100448.25;4955360;28;7104;-76
2022/08/23 05:36:55;;;;;;;;;;;;;;;22.99;52.18;100445.59;4957208;28;7168;-76
2022/08/23 05:39:21;;;;;;;;;;;;;;;23.16;51.41;100447.28;4991635;28;6963;-76
2022/08/23 05:41:46;;;;;;;;;;;;;;;23.30;51.69;100460.34;4961376;28;6776;-76
2022/08/23 05:44:13;;;;;;;;;;;;;;;23.43;51.46;100461.16;4971524;28;6898;-76
2022/08/23 05:46:40;;;;;;;;;;;;;;;23.58;50.95;100460.22;4991590;28;7331;-76
2022/08/23 05:49:06;;;;;;;;;;;;;;;23.72;50.90;100457.53;4956747;28;7181;-76
2022/08/23 05:51:34;;;;;;;;;;;;;;;23.86;51.11;100453.06;4972788;28;7225;-76
2022/08/23 05:54:05;;;;;;;;;;;;;;;23.99;49.95;100453.88;4990986;28;7313;-76
2022/08/23 05:56:36;;;;;;;;;;;;;;;24.11;50.05;100465.16;4992367;28;7041;-76
2022/08/23 05:59:06;;;;;;;;;;;;;;;24.20;49.52;100464.25;4962081;28;7105;-76
2022/08/23 06:01:34;;;;;;;;;;;;;;;24.32;49.58;100463.25;4955608;28;6967;-76
2022/08/23 06:04:04;;;;;;;;;;;;;;;24.41;48.88;100463.19;4960243;28;6796;-76
2022/08/23 06:06:32;;;;;;;;;;;;;;;24.54;48.55;100471.81;4963380;28;6993;-76
2022/08/23 06:08:58;;;;;;;;;;;;;;;24.63;48.97;100473.50;4964491;28;6789;-76
2022/08/23 06:11:28;;;;;;;;;;;;;;;24.69;48.13;100473.41;4956707;28;7190;-76
2022/08/23 06:13:57;;;;;;;;;;;;;;;24.75;47.75;100477.72;4960900;28;6796;-76
2022/08/23 06:16:28;;;;;;;;;;;;;;;24.78;47.81;100473.34;4989890;28;7386;-76
2022/08/23 06:18:56;;;;;;;;;;;;;;;24.84;47.25;100479.44;4959852;28;7137;-76
2022/08/23 06:21:24;;;;;;;;;;;;;;;24.88;46.94;100479.38;4955944;28;7362;-76
2022/08/23 06:23:50;;;;;;;;;;;;;;;24.93;47.04;100487.22;4993172;28;6996;-76
2022/08/23 06:26:21;;;;;;;;;;;;;;;25.01;46.98;100485.34;4963219;28;6881;-76
2022/08/23 06:28:52;;;;;;;;;;;;;;;25.08;46.88;100483.56;4965106;28;6861;-76
2022/08/23 06:34:07;;;;;;;;;;;;;;;25.23;46.95;100485.13;4981038;28;6804;-76
2022/08/23 06:36:33;;;;;;;;;;;;;;;25.29;46.74;100485.03;4966464;28;7191;-76
2022/08/23 06:38:59;;;;;;;;;;;;;;;25.34;46.13;100483.25;4967079;28;7162;-76
2022/08/23 06:41:25;;;;;;;;;;;;;;;25.37;46.07;100477.94;4978915;28;6954;-76
2022/08/23 06:43:50;;;;;;;;;;;;;;;25.40;45.59;100484.03;4962367;28;8109;-76
2022/08/23 06:46:24;;;;;;;;;;;;;;;25.44;45.82;100477.88;4979066;28;7232;-76
2022/08/23 06:48:52;;;;;;;;;;;;;;;25.50;46.20;100477.84;4971580;28;6881;-76
2022/08/23 06:51:29;;;;;;;;;;;;;;;25.55;45.98;100480.41;4973116;28;6820;-76
2022/08/23 06:53:59;;;;;;;;;;;;;;;25.58;45.63;100468.09;4960655;28;7409;-77
2022/08/23 06:56:27;;;;;;;;;;;;;;;25.62;45.92;100482.03;4960042;28;7222;-76
2022/08/23 06:58:54;;;;;;;;;;;;;;;25.64;45.83;100485.50;4958496;28;6859;-76
2022/08/23 07:02:02;;;;;;;;;;;;;;;25.67;45.41;100475.00;4952907;28;7116;-76
2022/08/23 07:04:38;;;;;;;;;;;;;;;25.69;45.37;100470.59;4969996;28;6844;-75
2022/08/23 07:07:06;;;;;;;;;;;;;;;25.71;45.49;100470.56;4957519;28;7795;-76
2022/08/23 07:09:31;;;;;;;;;;;;;;;25.73;45.30;100474.03;4969054;28;7209;-76
2022/08/23 07:11:59;;;;;;;;;;;;;;;25.75;45.36;100488.00;4971565;28;6963;-76
2022/08/23 07:14:26;;;;;;;;;;;;;;;25.78;44.94;100487.94;4964075;28;6824;-76
2022/08/23 07:16:56;;;;;;;;;;;;;;;25.81;45.20;100484.41;4961726;28;6959;-76
2022/08/23 07:19:27;;;;;;;;;;;;;;;25.86;45.17;100480.84;4977600;28;6818;-76
2022/08/23 07:21:54;;;;;;;;;;;;;;;25.91;45.34;100484.28;4965153;28;7271;-76
2022/08/23 07:24:21;;;;;;;;;;;;;;;25.97;45.17;100482.44;4963781;28;6820;-76
2022/08/23 07:26:50;;;;;;;;;;;;;;;26.05;45.10;100485.81;4965115;28;7439;-76
2022/08/23 07:29:17;;;;;;;;;;;;;;;26.15;44.84;100486.56;4962882;28;6957;-75
2022/08/23 07:31:51;;;;;;;;;;;;;;;26.23;44.78;100479.47;4966734;28;7044;-76
2022/08/23 07:34:18;;;;;;;;;;;;;;;26.32;44.81;100487.19;4960196;28;7270;-76
2022/08/23 07:36:45;;;;;;;;;;;;;;;26.42;44.41;100495.78;4964486;28;6796;-76
2022/08/23 07:39:14;;;;;;;;;;;;;;;26.50;44.55;100495.66;4967148;28;7334;-75
2022/08/23 07:41:40;;;;;;;;;;;;;;;26.59;44.31;100487.59;4960285;28;6808;-76
2022/08/23 07:44:08;;;;;;;;;;;;;;;26.68;44.27;100491.84;4973180;28;6820;-75
2022/08/23 07:46:38;;;;;;;;;;;;;;;26.80;44.07;100497.78;4962364;28;7938;-76
2022/08/23 07:49:05;;;;;;;;;;;;;;;26.89;43.96;100505.53;4972258;28;7443;-76
2022/08/23 07:51:34;;;;;;;;;;;;;;;26.99;43.92;100503.59;4962478;28;7023;-77
2022/08/23 07:54:04;;;;;;;;;;;;;;;27.10;43.56;100511.28;4961058;28;6816;-76
2022/08/23 07:56:29;;;;;;;;;;;;;;;27.21;43.48;100511.94;4998759;28;6808;-76
2022/08/23 07:58:55;;;;;;;;;;;;;;;27.33;43.47;100515.22;4962597;28;6792;-76
2022/08/23 08:01:27;;;;;;;;;;;;;;;27.41;43.27;100518.56;4964468;28;6819;-76
2022/08/23 08:03:56;;;;;;;;;;;;;;;27.52;43.01;100519.19;4967009;28;8047;-76
2022/08/23 08:06:29;;;;;;;;;;;;;;;27.62;42.74;100519.03;4946084;28;7025;-76
2022/08/23 08:08:57;;;;;;;;;;;;;;;27.71;42.86;100510.94;4968128;28;7378;-76
2022/08/23 08:11:27;;;;;;;;;;;;;;;27.81;42.44;100520.38;4975991;28;8133;-76
2022/08/23 08:13:55;;;;;;;;;;;;;;;27.95;42.39;100521.84;4995654;28;7227;-75
2022/08/23 08:16:32;;;;;;;;;;;;;;;28.07;42.54;100513.66;4957879;28;7260;-76
2022/08/23 08:19:00;;;;;;;;;;;;;;;28.20;42.21;100524.81;4974725;28;7325;-76
2022/08/23 08:21:27;;;;;;;;;;;;;;;28.32;42.33;100528.06;4967647;28;7192;-76
2022/08/23 08:23:54;;;;;;;;;;;;;;;28.44;41.56;100519.00;4975722;28;6985;-76
2022/08/23 08:26:21;;;;;;;;;;;;;;;28.59;41.68;100529.16;4959099;28;7213;-76
2022/08/23 08:28:48;;;;;;;;;;;;;;;28.71;41.14;100524.47;4968224;28;7142;-76
2022/08/23 08:31:14;;;;;;;;;;;;;;;28.83;41.08;100521.53;4988047;28;6832;-76
2022/08/23 08:33:40;;;;;;;;;;;;;;;28.95;40.79;100528.25;4963398;28;6826;-77
2022/08/23 08:36:08;;;;;;;;;;;;;;;29.07;40.27;100527.03;4959845;28;9459;-76
2022/08/23 08:38:38;;;;;;;;;;;;;;;29.17;40.20;100517.13;4979991;28;7236;-76
2022/08/23 08:41:18;;;;;;;;;;;;;;;29.25;39.27;100521.25;4987741;28;7259;-75
2022/08/23 08:44:18;;;;;;;;;;;;;;;29.33;39.59;100526.34;4955773;28;7404;-75
2022/08/23 08:46:48;;;;;;;;;;;;;;;29.40;39.61;100521.75;4962075;28;6994;-76
2022/08/23 08:49:43;;;;;;;;;;;;;;;29.49;39.18;100518.00;4966355;28;7367;-76
2022/08/23 08:52:56;;;;;;;;;;;;;;;29.56;39.71;100524.81;4958119;28;6994;-75
2022/08/23 08:55:44;;;;;;;;;;;;;;;29.63;39.02;100520.22;4962802;28;7181;-76
2022/08/23 08:58:27;;;;;;;;;;;;;;;29.72;39.40;100519.09;4960465;28;7015;-75
2022/08/23 09:00:54;;;;;;;;;;;;;;;29.79;39.45;100516.22;4974660;28;7258;-76
2022/08/23 09:03:21;;;;;;;;;;;;;;;29.87;39.20;100517.75;4966892;28;6967;-75
2022/08/23 09:06:00;;;;;;;;;;;;;;;29.97;38.93;100524.50;4978386;28;8211;-76
2022/08/23 09:09:16;;;;;;;;;;;;;;;30.07;38.54;100525.97;4961011;28;7281;-76
2022/08/23 09:12:36;;;;;;;;;;;;;;;30.20;38.30;100521.16;4960134;28;6852;-75
2022/08/23 09:15:32;;;;;;;;;;;;;;;30.33;38.15;100521.63;4980603;28;7895;-75
2022/08/23 09:18:12;;;;;;;;;;;;;;;30.49;37.77;100529.03;4990083;28;7013;-76
2022/08/23 09:20:41;;;;;;;;;;;;;;;30.70;38.17;100529.25;4965120;28;7097;-76
2022/08/23 09:23:18;;;;;;;;;;;;;;;30.98;37.82;100528.28;4965455;28;7056;-76
2022/08/23 09:25:51;;;;;;;;;;;;;;;31.38;37.02;100531.31;4960529;28;7809;-76
2022/08/23 09:28:17;;;;;;;;;;;;;;;31.86;36.47;100527.72;4961082;28;6793;-75
2022/08/23 09:30:54;;;;;;;;;;;;;;;32.60;35.63;100522.13;4965704;28;6875;-76
2022/08/23 09:33:25;;;;;;;;;;;;;;;33.50;34.09;100518.22;4960013;28;6811;-76
2022/08/23 09:36:27;;;;;;;;;;;;;;;34.56;32.53;100510.50;4954465;28;7228;-76
2022/08/23 09:38:57;;;;;;;;;;;;;;;35.55;31.28;100513.34;4967101;28;7086;-76
2022/08/23 09:41:37;;;;;;;;;;;;;;;36.47;30.35;100505.47;4960651;28;7026;-76
2022/08/23 09:44:40;;;;;;;;;;;;;;;37.42;29.52;100502.38;4972333;28;6823;-76
2022/08/23 09:47:15;;;;;;;;;;;;;;;38.34;28.77;100502.69;4958766;28;6828;-76
2022/08/23 09:49:46;;;;;;;;;;;;;;;39.14;26.63;100503.47;4978080;28;8311;-76
2022/08/23 09:52:36;;;;;;;;;;;;;;;39.85;25.45;100501.97;4986836;28;7267;-76
2022/08/23 09:55:30;;;;;;;;;;;;;;;40.39;25.17;100494.44;4956997;28;6800;-76
2022/08/23 09:58:00;;;;;;;;;;;;;;;40.93;24.78;100492.94;4951115;28;7088;-76
2022/08/23 10:00:35;;;;;;;;;;;;;;;41.50;24.08;100505.44;4958326;28;6804;-76
2022/08/23 10:03:25;;;;;;;;;;;;;;;42.09;22.98;100505.19;4960986;28;7224;-76
2022/08/23 10:06:00;;;;;;;;;;;;;;;42.56;21.89;100496.72;4953922;28;6874;-77
2022/08/23 10:08:32;;;;;;;;;;;;;;;42.96;21.53;100506.72;4989157;28;7252;-77
2022/08/23 10:11:11;;;;;;;;;;;;;;;43.34;21.03;100500.72;4963207;28;6912;-77
2022/08/23 10:13:41;;;;;;;;;;;;;;;43.66;20.83;100505.09;4954701;28;7262;-77
2022/08/23 10:16:36;;;;;;;;;;;;;;;43.90;20.15;100507.41;4989747;28;6799;-77
2022/08/23 10:19:19;;;;;;;;;;;;;;;44.03;19.81;100507.06;4961837;28;6816;-77
2022/08/23 10:21:59;;;;;;;;;;;;;;;44.18;19.81;100503.97;4993857;28;6804;-77
2022/08/23 10:24:50;;;;;;;;;;;;;;;44.36;19.26;100513.03;4963864;28;7271;-78
2022/08/23 10:31:10;;;;;;;;;;;;;;;44.52;19.21;100504.31;4975723;28;7040;-77
2022/08/23 10:34:02;;;;;;;;;;;;;;;44.44;19.01;100515.00;4966758;28;6971;-77
2022/08/23 10:37:11;;;;;;;;;;;;;;;44.41;18.92;100509.91;4961322;28;8360;-76
2022/08/23 10:40:29;;;;;;;;;;;;;;;44.47;18.73;100514.72;4965401;28;7007;-76
2022/08/23 10:43:36;;;;;;;;;;;;;;;44.58;18.87;100507.47;4970600;28;6828;-76
2022/08/23 10:46:02;;;;;;;;;;;;;;;44.64;18.27;100494.22;4956208;28;7027;-76
2022/08/23 10:48:51;;;;;;;;;;;;;;;44.65;18.33;100495.94;4989716;28;7233;-76
2022/08/23 10:51:29;;;;;;;;;;;;;;;44.96;18.42;100497.50;4991436;28;6803;-77
2022/08/23 10:54:02;;;;;;;;;;;;;;;45.18;18.19;100490.84;4962339;28;6868;-77
2022/08/23 10:56:28;;;;;;;;;;;;;;;45.29;17.96;100492.50;4973989;28;7005;-76
2022/08/23 10:59:06;;;;;;;;;;;;;;;45.46;17.77;100496.25;4954708;28;6784;-76
2022/08/23 11:01:49;;;;;;;;;;;;;;;45.54;17.34;100486.53;4962964;28;7231;-76
2022/08/23 11:04:47;;;;;;;;;;;;;;;45.56;17.32;100493.50;4957323;28;7257;-77
2022/08/23 11:07:40;;;;;;;;;;;;;;;45.70;17.13;100492.09;4959290;28;6828;-76
2022/08/23 11:10:29;;;;;;;;;;;;;;;45.81;16.87;100490.19;4975273;28;7359;-76
2022/08/23 11:13:19;;;;;;;;;;;;;;;45.81;17.08;100485.59;4960417;28;7087;-77
2022/08/23 11:15:59;;;;;;;;;;;;;;;46.05;17.04;100484.94;4952596;28;7212;-77
2022/08/23 11:18:28;;;;;;;;;;;;;;;46.23;17.01;100480.56;4959645;28;7024;-77
2022/08/23 11:21:19;;;;;;;;;;;;;;;46.20;16.87;100489.84;4963722;28;6868;-77
2022/08/23 11:23:53;;;;;;;;;;;;;;;46.10;16.64;100487.19;4958695;28;6971;-77
2022/08/23 11:26:21;;;;;;;;;;;;;;;46.04;16.46;100491.38;4961011;28;6993;-76
2022/08/23 11:28:51;;;;;;;;;;;;;;;45.91;16.74;100493.66;4960143;28;7192;-77
2022/08/23 11:31:30;;;;;;;;;;;;;;;45.80;16.95;100492.03;4961223;28;7778;-77
2022/08/23 11:34:00;;;;;;;;;;;;;;;45.82;16.93;100481.06;4960009;28;7212;-77
2022/08/23 11:36:29;;;;;;;;;;;;;;;45.80;16.24;100473.09;4973594;28;7012;-77
2022/08/23 11:38:54;;;;;;;;;;;;;;;45.68;16.74;100477.03;4976607;28;7201;-77
2022/08/23 11:41:54;;;;;;;;;;;;;;;45.60;16.83;100478.63;4957031;28;6819;-77
2022/08/23 11:44:35;;;;;;;;;;;;;;;45.58;16.67;100477.09;4967666;28;7304;-77
2022/08/23 11:47:08;;;;;;;;;;;;;;;45.52;16.67;100470.44;4984753;28;6823;-77
2022/08/23 11:50:11;;;;;;;;;;;;;;;45.57;16.73;100462.72;4994807;28;6828;-77
2022/08/23 11:53:18;;;;;;;;;;;;;;;45.67;16.56;100459.91;4955631;28;7026;-77
2022/08/23 11:56:39;;;;;;;;;;;;;;;45.68;16.55;100468.91;4957086;28;7062;-77
2022/08/23 11:59:33;;;;;;;;;;;;;;;45.67;16.63;100462.63;4960632;28;7893;-77
2022/08/23 12:02:37;;;;;;;;;;;;;;;45.81;16.63;100465.84;4960644;28;7814;-77
2022/08/23 12:05:31;;;;;;;;;;;;;;;45.86;16.23;100455.38;4964508;28;7116;-77
2022/08/23 12:08:02;;;;;;;;;;;;;;;45.86;16.31;100463.50;4962880;28;7944;-77
2022/08/23 12:10:49;;;;;;;;;;;;;;;45.75;16.24;100468.09;4959531;28;7205;-76
2022/08/23 12:13:18;;;;;;;;;;;;;;;45.76;16.40;100464.41;4960403;28;6827;-77
2022/08/23 12:16:11;;;;;;;;;;;;;;;45.89;16.46;100455.91;4963946;28;8167;-77
2022/08/23 12:18:46;;;;;;;;;;;;;;;46.12;16.25;100460.81;4963279;28;6963;-77
2022/08/23 12:21:44;;;;;;;;;;;;;;;46.11;16.28;100452.84;4994057;28;6999;-77
2022/08/23 12:24:40;;;;;;;;;;;;;;;46.16;16.13;100454.09;4961881;28;6980;-76
2022/08/23 12:27:43;;;;;;;;;;;;;;;46.05;15.83;100455.16;4993341;28;7009;-77
2022/08/23 12:30:19;;;;;;;;;;;;;;;45.48;16.37;100458.25;4990536;28;7022;-77
2022/08/23 12:33:33;;;;;;;;;;;;;;;45.33;16.49;100450.63;4965321;28;11200;-76
2022/08/23 12:36:28;;;;;;;;;;;;;;;45.51;16.32;100459.78;4968735;28;7003;-76
2022/08/23 12:39:18;;;;;;;;;;;;;;;45.81;16.37;100460.41;4945374;28;6969;-77
2022/08/23 12:41:47;;;;;;;;;;;;;;;45.45;16.43;100456.69;4949703;28;6820;-77
2022/08/23 12:44:20;;;;;;;;;;;;;;;44.88;16.74;100446.88;4962559;28;7275;-77
2022/08/23 12:46:48;;;;;;;;;;;;;;;44.60;16.53;100449.59;4959392;28;6969;-77
2022/08/23 12:49:34;;;;;;;;;;;;;;;43.88;17.08;100451.84;4958377;28;7138;-77
2022/08/23 12:52:07;;;;;;;;;;;;;;;43.42;17.63;100463.16;4994006;28;6804;-77
2022/08/23 12:54:53;;;;;;;;;;;;;;;42.92;17.96;100470.28;4962557;28;8220;-77
2022/08/23 12:57:38;;;;;;;;;;;;;;;42.68;18.28;100457.94;4988147;28;6895;-77
2022/08/23 13:00:21;;;;;;;;;;;;;;;42.95;18.45;100453.81;4956564;28;6876;-76
2022/08/23 13:03:00;;;;;;;;;;;;;;;43.41;18.48;100454.25;4958625;28;13116;-76
2022/08/23 13:05:37;;;;;;;;;;;;;;;43.76;18.09;100461.94;4958975;28;7229;-77
2022/08/23 13:08:15;;;;;;;;;;;;;;;43.98;17.58;100460.78;4970622;28;6856;-76
2022/08/23 13:10:43;;;;;;;;;;;;;;;44.17;17.55;100451.00;4975053;28;7269;-76
2022/08/23 13:13:17;;;;;;;;;;;;;;;44.30;17.75;100456.91;4976883;28;7006;-76
2022/08/23 13:15:52;;;;;;;;;;;;;;;44.35;17.25;100454.63;4950680;28;7781;-76
2022/08/23 13:18:42;;;;;;;;;;;;;;;44.19;17.19;100459.78;4966627;28;6820;-76
2022/08/23 13:21:30;;;;;;;;;;;;;;;44.03;17.25;100466.59;4976697;28;6971;-77
2022/08/23 13:24:01;;;;;;;;;;;;;;;43.93;17.46;100458.53;4964839;28;6804;-76
2022/08/23 13:26:34;;;;;;;;;;;;;;;43.46;17.42;100461.88;4959045;28;8278;-76
2022/08/23 13:29:06;;;;;;;;;;;;;;;42.57;17.93;100456.22;4963288;28;6975;-76
2022/08/23 13:31:56;;;;;;;;;;;;;;;41.48;18.41;100459.03;4971077;28;6956;-76
2022/08/23 13:34:35;;;;;;;;;;;;;;;40.61;19.00;100452.47;4960089;28;7255;-76
2022/08/23 13:37:14;;;;;;;;;;;;;;;40.27;19.62;100454.13;4969046;28;6931;-76
2022/08/23 13:39:50;;;;;;;;;;;;;;;40.50;20.33;100451.50;4931887;28;7047;-76